createdAt,value
2022-09-01T00:01:28.804Z,0.50
2022-09-01T00:04:03.601Z,0.90
2022-09-01T00:06:32.876Z,0.80
2022-09-01T00:09:02.760Z,0.93
2022-09-01T00:11:30.337Z,0.75
2022-09-01T00:13:57.488Z,0.90
2022-09-01T00:16:25.383Z,0.60
2022-09-01T00:18:54.068Z,0.85
2022-09-01T00:21:25.216Z,0.80
2022-09-01T00:23:51.943Z,0.90
2022-09-01T00:26:18.622Z,0.70
2022-09-01T00:28:45.492Z,0.82
2022-09-01T00:31:14.926Z,0.90
2022-09-01T00:33:41.827Z,0.80
2022-09-01T00:36:08.602Z,0.75
2022-09-01T00:38:35.650Z,0.75
2022-09-01T00:41:02.320Z,0.85
2022-09-01T00:43:49.865Z,0.90
2022-09-01T00:46:29.212Z,0.90
2022-09-01T00:49:08.680Z,0.80
2022-09-01T00:51:38.572Z,0.90
2022-09-01T00:54:07.799Z,0.90
2022-09-01T00:56:35.438Z,0.90
2022-09-01T00:59:02.217Z,0.80
2022-09-01T01:01:28.837Z,1.05
2022-09-01T01:03:55.488Z,1.00
2022-09-01T01:06:30.745Z,1.00
2022-09-01T01:09:00.463Z,1.20
2022-09-01T01:11:30.812Z,0.80
2022-09-01T01:14:11.956Z,0.90
2022-09-01T01:16:45.240Z,0.80
2022-09-01T01:19:48.266Z,1.05
2022-09-01T01:22:41.060Z,0.70
2022-09-01T01:25:07.947Z,0.93
2022-09-01T01:27:39.976Z,1.00
2022-09-01T01:30:11.786Z,0.88
2022-09-01T01:35:14.945Z,0.80
2022-09-01T01:37:48.851Z,1.00
2022-09-01T01:40:19.888Z,0.93
2022-09-01T01:42:48.976Z,0.80
2022-09-01T01:45:19.528Z,0.90
2022-09-01T01:47:51.881Z,1.00
2022-09-01T01:50:22.536Z,1.00
2022-09-01T01:52:49.440Z,0.90
2022-09-01T01:55:29.134Z,0.85
2022-09-01T01:57:56.445Z,0.90
2022-09-01T02:00:30.141Z,0.77
2022-09-01T02:02:58.082Z,0.98
2022-09-01T02:05:32.302Z,0.80
2022-09-01T02:08:04.055Z,0.80
2022-09-01T02:10:34.431Z,0.82
2022-09-01T02:13:07.142Z,0.93
2022-09-01T02:15:43.263Z,0.80
2022-09-01T02:18:14.396Z,0.80
2022-09-01T02:20:42.788Z,0.65
2022-09-01T02:23:10.899Z,0.80
2022-09-01T02:26:05.149Z,0.73
2022-09-01T02:28:33.007Z,0.82
2022-09-01T02:30:59.881Z,0.98
2022-09-01T02:33:28.448Z,0.80
2022-09-01T02:38:26.191Z,0.63
2022-09-01T02:40:53.701Z,0.98
2022-09-01T02:43:21.291Z,1.33
2022-09-01T02:45:52.924Z,0.90
2022-09-01T02:48:22.680Z,1.02
2022-09-01T02:50:49.481Z,0.95
2022-09-01T02:53:16.420Z,1.00
2022-09-01T02:55:43.621Z,0.98
2022-09-01T02:58:16.251Z,0.80
2022-09-01T03:00:43.703Z,0.90
2022-09-01T03:03:17.614Z,1.00
2022-09-01T03:05:44.208Z,1.08
2022-09-01T03:08:14.756Z,0.90
2022-09-01T03:10:42.501Z,1.10
2022-09-01T03:13:12.656Z,1.02
2022-09-01T03:15:40.316Z,0.90
2022-09-01T03:18:08.747Z,0.87
2022-09-01T03:23:08.024Z,0.98
2022-09-01T03:25:36.802Z,1.00
2022-09-01T03:28:05.408Z,0.90
2022-09-01T03:33:00.515Z,0.80
2022-09-01T03:35:28.545Z,0.87
2022-09-01T03:37:59.082Z,1.00
2022-09-01T03:40:27.925Z,0.82
2022-09-01T03:42:55.738Z,0.70
2022-09-01T03:45:25.665Z,1.35
2022-09-01T03:47:54.444Z,0.98
2022-09-01T03:50:24.296Z,1.10
2022-09-01T03:52:56.822Z,1.10
2022-09-01T03:55:27.647Z,0.82
2022-09-01T03:57:56.786Z,0.80
2022-09-01T04:00:25.408Z,0.80
2022-09-01T04:02:56.289Z,0.90
2022-09-01T04:05:28.826Z,1.10
2022-09-01T04:08:04.197Z,0.93
2022-09-01T04:10:32.627Z,1.00
2022-09-01T04:13:00.130Z,1.00
2022-09-01T04:15:27.960Z,0.95
2022-09-01T04:18:10.680Z,1.10
2022-09-01T04:20:48.576Z,1.00
2022-09-01T04:23:26.598Z,0.85
2022-09-01T04:25:55.455Z,0.80
2022-09-01T04:28:24.711Z,1.00
2022-09-01T04:30:55.952Z,1.20
2022-09-01T04:33:24.691Z,1.00
2022-09-01T04:35:54.826Z,1.10
2022-09-01T04:38:24.886Z,1.05
2022-09-01T04:40:52.620Z,0.90
2022-09-01T04:43:19.565Z,0.77
2022-09-01T04:45:46.938Z,0.88
2022-09-01T04:48:13.571Z,1.20
2022-09-01T04:50:41.062Z,0.80
2022-09-01T04:53:12.057Z,1.20
2022-09-01T04:55:43.644Z,1.30
2022-09-01T04:58:13.781Z,1.55
2022-09-01T05:00:40.813Z,2.08
2022-09-01T05:03:07.528Z,1.50
2022-09-01T05:05:43.156Z,1.30
2022-09-01T05:08:23.077Z,1.30
2022-09-01T05:10:55.580Z,1.17
2022-09-01T05:13:29.648Z,1.40
2022-09-01T05:16:06.440Z,1.67
2022-09-01T05:18:34.030Z,1.25
2022-09-01T05:21:09.826Z,1.30
2022-09-01T05:23:40.490Z,0.95
2022-09-01T05:26:17.933Z,1.00
2022-09-01T05:28:45.599Z,1.27
2022-09-01T05:31:13.102Z,1.07
2022-09-01T05:33:46.082Z,1.07
2022-09-01T05:36:14.744Z,1.20
2022-09-01T05:41:11.199Z,1.07
2022-09-01T05:43:38.728Z,1.40
2022-09-01T05:46:09.071Z,1.38
2022-09-01T05:48:39.906Z,1.65
2022-09-01T05:51:22.414Z,1.20
2022-09-01T05:53:58.964Z,1.35
2022-09-01T05:56:31.165Z,1.60
2022-09-01T06:01:50.539Z,1.38
2022-09-01T06:04:18.183Z,1.60
2022-09-01T06:07:05.326Z,1.30
2022-09-01T06:09:38.357Z,1.58
2022-09-01T06:12:06.824Z,1.63
2022-09-01T06:17:01.070Z,1.23
2022-09-01T06:19:28.768Z,1.60
2022-09-01T06:21:56.920Z,1.30
2022-09-01T06:24:23.628Z,1.42
2022-09-01T06:26:50.357Z,1.30
2022-09-01T06:29:17.047Z,1.10
2022-09-01T06:31:45.955Z,1.20
2022-09-01T06:34:18.145Z,0.90
2022-09-01T06:36:45.906Z,1.10
2022-09-01T06:39:19.881Z,1.23
2022-09-01T06:41:52.838Z,1.00
2022-09-01T06:44:23.067Z,1.10
2022-09-01T06:46:51.886Z,0.90
2022-09-01T06:49:32.604Z,1.10
2022-09-01T06:52:00.464Z,0.95
2022-09-01T06:54:27.069Z,1.10
2022-09-01T06:56:53.699Z,1.10
2022-09-01T06:59:21.837Z,1.20
2022-09-01T07:02:01.321Z,1.13
2022-09-01T07:04:30.378Z,1.40
2022-09-01T07:07:53.416Z,0.77
2022-09-01T07:09:50.056Z,1.10
2022-09-01T07:12:32.205Z,1.13
2022-09-01T07:17:52.248Z,1.00
2022-09-01T07:20:24.809Z,1.00
2022-09-01T07:23:09.221Z,1.10
2022-09-01T07:28:37.340Z,1.00
2022-09-01T07:33:55.708Z,1.20
2022-09-01T07:45:28.200Z,1.30
2022-09-01T07:47:56.000Z,1.20
2022-09-01T07:50:38.799Z,1.50
2022-09-01T07:53:09.229Z,1.25
2022-09-01T07:55:36.467Z,1.27
2022-09-01T07:58:03.204Z,1.30
2022-09-01T08:00:31.979Z,1.65
2022-09-01T08:02:59.133Z,1.23
2022-09-01T08:05:27.326Z,1.10
2022-09-01T08:07:54.898Z,1.05
2022-09-01T08:10:21.991Z,1.38
2022-09-01T08:12:56.328Z,1.23
2022-09-01T08:15:41.261Z,1.20
2022-09-01T08:18:14.591Z,1.40
2022-09-01T08:20:47.288Z,1.67
2022-09-01T08:23:16.432Z,1.25
2022-09-01T08:25:44.305Z,1.25
2022-09-01T08:28:12.318Z,1.40
2022-09-01T08:30:40.885Z,1.38
2022-09-01T08:33:11.023Z,1.30
2022-09-01T08:35:42.730Z,1.58
2022-09-01T08:38:10.106Z,1.15
2022-09-01T08:40:37.089Z,1.23
2022-09-01T08:43:42.828Z,1.33
2022-09-01T08:46:13.757Z,1.10
2022-09-01T08:51:34.971Z,1.23
2022-09-01T08:54:06.931Z,1.00
2022-09-01T08:56:36.415Z,1.17
2022-09-01T08:59:04.435Z,1.17
2022-09-01T09:01:59.618Z,1.10
2022-09-01T09:05:25.083Z,1.10
2022-09-01T09:08:12.979Z,1.13
2022-09-01T09:10:43.739Z,0.98
2022-09-01T09:13:31.439Z,1.20
2022-09-01T09:16:16.960Z,0.80
2022-09-01T09:18:57.772Z,0.90
2022-09-01T09:21:33.465Z,1.10
2022-09-01T09:24:37.894Z,0.88
2022-09-01T09:27:07.137Z,0.90
2022-09-01T09:29:36.722Z,0.90
2022-09-01T09:32:06.912Z,1.05
2022-09-01T09:34:39.322Z,0.90
2022-09-01T09:37:29.804Z,1.17
2022-09-01T09:40:19.751Z,1.02
2022-09-01T09:42:56.015Z,1.02
2022-09-01T09:45:42.015Z,0.90
2022-09-01T09:48:30.221Z,0.80
2022-09-01T09:51:16.185Z,1.00
2022-09-01T09:53:42.839Z,1.08
2022-09-01T09:56:15.516Z,1.40
2022-09-01T09:58:44.068Z,1.20
2022-09-01T10:03:49.132Z,1.15
2022-09-01T10:06:31.521Z,0.90
2022-09-01T10:08:59.196Z,1.10
2022-09-01T10:11:49.555Z,0.87
2022-09-01T10:14:35.915Z,0.82
2022-09-01T10:17:13.404Z,0.98
2022-09-01T10:19:51.493Z,1.00
2022-09-01T10:22:18.528Z,0.93
2022-09-01T10:24:45.962Z,1.00
2022-09-01T10:27:22.032Z,1.15
2022-09-01T10:30:18.409Z,1.50
2022-09-01T10:32:55.671Z,1.15
2022-09-01T10:35:32.872Z,1.08
2022-09-01T10:38:02.127Z,1.00
2022-09-01T10:40:31.589Z,1.15
2022-09-01T10:43:28.474Z,1.13
2022-09-01T10:45:58.853Z,1.17
2022-09-01T10:48:45.899Z,1.00
2022-09-01T10:51:28.059Z,0.80
2022-09-01T10:54:02.148Z,0.98
2022-09-01T10:56:43.604Z,1.00
2022-09-01T10:59:44.909Z,0.85
2022-09-01T11:02:25.022Z,1.00
2022-09-01T11:04:59.436Z,0.90
2022-09-01T11:07:50.400Z,0.80
2022-09-01T11:10:32.779Z,1.10
2022-09-01T11:13:19.897Z,0.90
2022-09-01T11:15:46.613Z,1.40
2022-09-01T11:18:27.567Z,0.80
2022-09-01T11:20:55.633Z,0.90
2022-09-01T11:23:30.451Z,0.93
2022-09-01T11:26:19.241Z,1.00
2022-09-01T11:28:46.613Z,0.85
2022-09-01T11:31:16.255Z,1.00
2022-09-01T11:34:11.750Z,0.70
2022-09-01T11:36:49.765Z,0.88
2022-09-01T11:39:20.832Z,0.75
2022-09-01T11:42:31.749Z,1.42
2022-09-01T11:45:20.609Z,0.88
2022-09-01T11:48:01.510Z,0.90
2022-09-01T11:50:33.927Z,0.63
2022-09-01T11:53:05.558Z,0.85
2022-09-01T11:55:33.735Z,0.82
2022-09-01T11:58:00.460Z,0.90
2022-09-01T12:00:33.355Z,0.80
2022-09-01T12:03:00.474Z,0.82
2022-09-01T12:05:27.202Z,0.80
2022-09-01T12:07:54.652Z,0.82
2022-09-01T12:10:27.525Z,0.73
2022-09-01T12:13:24.015Z,0.90
2022-09-01T12:16:19.440Z,0.90
2022-09-01T12:18:52.077Z,0.60
2022-09-01T12:21:32.357Z,0.80
2022-09-01T12:24:21.593Z,0.93
2022-09-01T12:26:50.528Z,0.70
2022-09-01T12:29:18.212Z,0.68
2022-09-01T12:31:48.302Z,0.73
2022-09-01T12:34:33.207Z,0.70
2022-09-01T12:37:02.652Z,0.75
2022-09-01T12:39:37.383Z,0.75
2022-09-01T12:42:11.364Z,0.90
2022-09-01T12:44:37.969Z,0.57
2022-09-01T12:47:14.068Z,0.93
2022-09-01T12:49:50.268Z,0.80
2022-09-01T12:52:20.499Z,0.60
2022-09-01T12:54:48.698Z,0.80
2022-09-01T12:57:30.144Z,0.63
2022-09-01T13:00:05.921Z,0.65
2022-09-01T13:02:36.833Z,0.70
2022-09-01T13:05:28.476Z,0.70
2022-09-01T13:08:14.926Z,0.70
2022-09-01T13:10:57.008Z,0.70
2022-09-01T13:13:25.566Z,0.82
2022-09-01T13:15:55.214Z,0.68
2022-09-01T13:18:24.109Z,0.70
2022-09-01T13:20:52.968Z,0.60
2022-09-01T13:23:20.782Z,0.70
2022-09-01T13:25:48.201Z,0.70
2022-09-01T13:28:16.185Z,0.60
2022-09-01T13:30:44.515Z,0.70
2022-09-01T13:33:20.214Z,0.80
2022-09-01T13:35:48.276Z,0.50
2022-09-01T13:38:16.769Z,0.57
2022-09-01T13:40:46.170Z,0.60
2022-09-01T13:43:16.492Z,0.68
2022-09-01T13:45:45.030Z,0.60
2022-09-01T13:48:16.265Z,0.55
2022-09-01T13:53:31.238Z,0.88
2022-09-01T13:58:29.640Z,0.70
2022-09-01T14:00:59.460Z,0.57
2022-09-01T14:03:26.220Z,0.77
2022-09-01T14:05:53.913Z,0.50
2022-09-01T14:08:22.655Z,0.50
2022-09-01T14:10:51.361Z,0.75
2022-09-01T14:13:20.044Z,0.80
2022-09-01T14:15:47.162Z,0.70
2022-09-01T14:18:15.242Z,0.70
2022-09-01T14:20:45.343Z,0.68
2022-09-01T14:23:13.668Z,0.60
2022-09-01T14:25:47.331Z,0.68
2022-09-01T14:28:14.301Z,0.50
2022-09-01T14:30:43.489Z,0.52
2022-09-01T14:33:10.791Z,0.45
2022-09-01T14:35:39.657Z,0.60
2022-09-01T14:38:08.389Z,0.80
2022-09-01T14:40:38.036Z,0.60
2022-09-01T14:43:07.829Z,0.65
2022-09-01T14:45:34.468Z,0.47
2022-09-01T14:48:01.300Z,0.60
2022-09-01T14:50:32.382Z,0.70
2022-09-01T14:53:00.789Z,0.77
2022-09-01T14:55:30.120Z,1.00
2022-09-01T14:57:57.647Z,0.50
2022-09-01T15:00:27.280Z,0.75
2022-09-01T15:02:55.594Z,0.68
2022-09-01T15:07:49.784Z,0.60
2022-09-01T15:10:24.936Z,0.70
2022-09-01T15:12:56.301Z,0.63
2022-09-01T15:15:23.373Z,0.80
2022-09-01T15:17:50.164Z,0.60
2022-09-01T15:20:35.397Z,0.60
2022-09-01T15:23:02.146Z,0.50
2022-09-01T15:25:28.862Z,0.70
2022-09-01T15:27:55.584Z,0.40
2022-09-01T15:30:22.329Z,0.50
2022-09-01T15:32:51.260Z,0.70
2022-09-01T15:35:18.591Z,0.60
2022-09-01T15:37:50.396Z,0.50
2022-09-01T15:40:18.315Z,0.63
2022-09-01T15:42:45.030Z,0.60
2022-09-01T15:45:17.889Z,0.57
2022-09-01T15:47:46.106Z,0.60
2022-09-01T15:50:17.352Z,0.60
2022-09-01T15:52:54.693Z,0.60
2022-09-01T15:55:24.676Z,0.75
2022-09-01T15:57:52.524Z,0.50
2022-09-01T16:00:24.709Z,1.13
2022-09-01T16:02:52.381Z,0.60
2022-09-01T16:05:19.036Z,0.80
2022-09-01T16:07:45.727Z,0.57
2022-09-01T16:10:13.007Z,0.60
2022-09-01T16:12:43.904Z,0.60
2022-09-01T16:15:16.590Z,0.45
2022-09-01T16:17:45.933Z,0.57
2022-09-01T16:20:39.492Z,1.10
2022-09-01T16:23:17.030Z,0.80
2022-09-01T16:25:44.440Z,0.65
2022-09-01T16:28:35.616Z,0.70
2022-09-01T16:31:24.905Z,0.50
2022-09-01T16:33:56.188Z,0.70
2022-09-01T16:36:46.468Z,0.50
2022-09-01T16:39:25.651Z,0.60
2022-09-01T16:42:13.420Z,0.60
2022-09-01T16:45:11.020Z,0.70
2022-09-01T16:48:14.465Z,0.50
2022-09-01T16:51:06.629Z,0.80
2022-09-01T16:53:38.244Z,0.52
2022-09-01T16:56:12.916Z,0.80
2022-09-01T16:58:49.102Z,0.70
2022-09-01T17:01:41.104Z,0.68
2022-09-01T17:04:28.591Z,0.50
2022-09-01T17:07:00.016Z,0.60
2022-09-01T17:09:38.932Z,0.70
2022-09-01T17:12:30.729Z,0.52
2022-09-01T17:15:19.889Z,0.60
2022-09-01T17:18:06.065Z,0.52
2022-09-01T17:20:40.097Z,0.47
2022-09-01T17:23:09.046Z,0.57
2022-09-01T17:26:03.349Z,0.43
2022-09-01T17:28:44.260Z,0.70
2022-09-01T17:31:43.426Z,0.57
2022-09-01T17:34:34.453Z,0.65
2022-09-01T17:37:28.908Z,0.60
2022-09-01T17:39:55.975Z,0.52
2022-09-01T17:42:25.288Z,0.70
2022-09-01T17:44:57.493Z,0.57
2022-09-01T17:48:20.751Z,0.70
2022-09-01T17:51:01.951Z,0.65
2022-09-01T17:53:41.350Z,0.60
2022-09-01T17:56:23.140Z,0.60
2022-09-01T17:59:11.508Z,0.50
2022-09-01T18:01:59.528Z,0.60
2022-09-01T18:04:44.376Z,0.50
2022-09-01T18:07:59.057Z,0.70
2022-09-01T18:11:08.129Z,0.80
2022-09-01T18:13:53.992Z,0.55
2022-09-01T18:16:28.979Z,0.60
2022-09-01T18:18:59.913Z,0.70
2022-09-01T18:21:31.861Z,0.70
2022-09-01T18:25:02.523Z,0.47
2022-09-01T18:27:33.173Z,0.70
2022-09-01T18:30:01.496Z,0.60
2022-09-01T18:32:44.316Z,0.73
2022-09-01T18:35:25.847Z,0.60
2022-09-01T18:38:15.611Z,0.60
2022-09-01T18:41:01.217Z,0.85
2022-09-01T18:43:38.813Z,0.70
2022-09-01T18:46:27.056Z,0.60
2022-09-01T18:49:07.182Z,0.60
2022-09-01T18:51:45.595Z,0.50
2022-09-01T18:56:54.974Z,0.77
2022-09-01T18:59:49.669Z,0.60
2022-09-01T19:02:44.164Z,0.65
2022-09-01T19:05:31.360Z,0.40
2022-09-01T19:08:14.902Z,0.65
2022-09-01T19:10:51.653Z,0.70
2022-09-01T19:13:50.236Z,0.70
2022-09-01T19:16:18.375Z,0.70
2022-09-01T19:18:57.665Z,0.40
2022-09-01T19:21:32.788Z,0.52
2022-09-01T19:24:04.698Z,0.75
2022-09-01T19:26:46.792Z,0.50
2022-09-01T19:29:24.679Z,0.60
2022-09-01T19:31:57.636Z,0.70
2022-09-01T19:34:27.065Z,0.55
2022-09-01T19:36:59.780Z,0.50
2022-09-01T19:39:30.060Z,0.60
2022-09-01T19:42:04.686Z,0.60
2022-09-01T19:44:44.592Z,0.55
2022-09-01T19:47:34.876Z,0.52
2022-09-01T19:50:18.020Z,0.77
2022-09-01T19:52:56.655Z,0.50
2022-09-01T19:55:30.944Z,0.50
2022-09-01T19:58:04.420Z,0.80
2022-09-01T20:00:50.683Z,0.50
2022-09-01T20:03:26.391Z,0.63
2022-09-01T20:06:00.481Z,0.70
2022-09-01T20:08:44.353Z,0.70
2022-09-01T20:11:13.478Z,0.73
2022-09-01T20:13:55.942Z,0.77
2022-09-01T20:16:32.481Z,0.57
2022-09-01T20:19:08.115Z,0.60
2022-09-01T20:21:39.115Z,0.77
2022-09-01T20:24:23.410Z,0.60
2022-09-01T20:27:13.885Z,0.60
2022-09-01T20:29:50.210Z,0.70
2022-09-01T20:32:26.560Z,0.55
2022-09-01T20:34:56.299Z,0.60
2022-09-01T20:37:40.235Z,0.70
2022-09-01T20:40:24.481Z,0.70
2022-09-01T20:43:19.249Z,0.80
2022-09-01T20:45:46.198Z,0.63
2022-09-01T20:48:15.858Z,0.70
2022-09-01T20:50:43.378Z,0.68
2022-09-01T20:53:36.600Z,0.70
2022-09-01T20:56:03.144Z,0.90
2022-09-01T20:58:41.706Z,0.60
2022-09-01T21:01:31.742Z,0.63
2022-09-01T21:04:05.961Z,0.60
2022-09-01T21:06:46.067Z,0.70
2022-09-01T21:09:18.401Z,0.50
2022-09-01T21:12:07.590Z,0.50
2022-09-01T21:14:46.331Z,0.80
2022-09-01T21:17:18.708Z,0.52
2022-09-01T21:20:16.053Z,0.52
2022-09-01T21:22:42.825Z,0.60
2022-09-01T21:25:09.436Z,0.50
2022-09-01T21:27:45.782Z,0.50
2022-09-01T21:30:14.800Z,0.47
2022-09-01T21:32:42.125Z,1.00
2022-09-01T21:35:11.806Z,0.80
2022-09-01T21:37:38.527Z,0.57
2022-09-01T21:40:06.830Z,0.63
2022-09-01T21:42:49.945Z,0.60
2022-09-01T21:45:18.444Z,0.50
2022-09-01T21:50:12.701Z,0.40
2022-09-01T21:52:39.428Z,0.60
2022-09-01T21:55:07.702Z,0.60
2022-09-01T21:57:35.465Z,0.50
2022-09-01T22:00:08.630Z,0.70
2022-09-01T22:02:37.408Z,0.45
2022-09-01T22:05:05.921Z,0.70
2022-09-01T22:09:59.875Z,0.65
2022-09-01T22:12:26.520Z,0.50
2022-09-01T22:14:53.191Z,0.50
2022-09-01T22:17:19.810Z,0.70
2022-09-01T22:19:46.436Z,0.60
2022-09-01T22:22:13.100Z,0.70
2022-09-01T22:24:39.688Z,0.70
2022-09-01T22:27:06.284Z,0.60
2022-09-01T22:29:32.860Z,0.70
2022-09-01T22:32:00.546Z,0.60
2022-09-01T22:34:27.139Z,0.55
2022-09-01T22:36:53.868Z,0.77
2022-09-01T22:39:25.170Z,0.57
2022-09-01T22:41:52.745Z,0.60
2022-09-01T22:44:19.364Z,0.50
2022-09-01T22:46:45.967Z,0.73
2022-09-01T22:49:12.552Z,0.50
2022-09-01T22:51:41.578Z,0.40
2022-09-01T22:54:10.870Z,0.70
2022-09-01T22:56:39.492Z,0.60
2022-09-01T23:01:36.638Z,0.50
2022-09-01T23:04:05.769Z,0.68
2022-09-01T23:06:33.596Z,0.60
2022-09-01T23:09:01.454Z,0.50
2022-09-01T23:11:28.773Z,0.68
2022-09-01T23:13:55.511Z,0.60
2022-09-01T23:16:23.653Z,0.50
2022-09-01T23:18:51.417Z,0.70
2022-09-01T23:21:21.025Z,0.80
2022-09-01T23:23:47.999Z,0.75
2022-09-01T23:26:22.007Z,0.70
2022-09-01T23:28:48.984Z,0.80
2022-09-01T23:31:18.496Z,0.70
2022-09-01T23:33:45.991Z,0.80
2022-09-01T23:36:15.503Z,0.63
2022-09-01T23:38:42.125Z,0.43
2022-09-01T23:41:11.753Z,0.77
2022-09-01T23:43:39.017Z,0.60
2022-09-01T23:46:06.942Z,0.40
2022-09-01T23:48:34.651Z,0.80
2022-09-01T23:51:08.849Z,0.52
2022-09-01T23:53:37.155Z,0.68
2022-09-01T23:56:09.196Z,0.70
2022-09-01T23:58:35.847Z,0.60
